createdAt,value
2018-09-03T00:00:46.477Z,1.91
2018-09-03T00:06:41.451Z,2.02
2018-09-03T00:12:36.417Z,1.97
2018-09-03T00:18:31.444Z,2
2018-09-03T00:24:26.410Z,2.03
2018-09-03T00:30:21.491Z,1.63
2018-09-03T00:36:16.418Z,2.05
2018-09-03T00:42:11.420Z,2.02
2018-09-03T00:48:06.421Z,1.96
2018-09-03T00:54:01.462Z,2.14
2018-09-03T00:59:56.450Z,1.99
2018-09-03T01:05:51.411Z,1.93
2018-09-03T01:11:46.416Z,1.87
2018-09-03T01:17:41.439Z,1.87
2018-09-03T01:23:36.431Z,1.76
2018-09-03T01:29:31.470Z,2.05
2018-09-03T01:35:26.449Z,2.04
2018-09-03T01:41:21.422Z,1.82
2018-09-03T01:47:16.472Z,1.8
2018-09-03T01:53:11.450Z,1.88
2018-09-03T01:59:06.452Z,1.72
2018-09-03T02:05:01.489Z,1.76
2018-09-03T02:10:56.426Z,1.73
2018-09-03T02:16:51.443Z,1.89
2018-09-03T02:22:46.426Z,1.75
2018-09-03T02:28:41.483Z,1.76
2018-09-03T02:34:36.429Z,2.11
2018-09-03T02:40:31.472Z,1.8
2018-09-03T02:46:26.427Z,1.66
2018-09-03T02:52:21.481Z,1.73
2018-09-03T02:58:16.474Z,2.05
2018-09-03T03:04:11.431Z,1.68
2018-09-03T03:10:06.450Z,1.94
2018-09-03T03:16:01.441Z,1.97
2018-09-03T03:21:56.450Z,2.24
2018-09-03T03:27:51.442Z,2.33
2018-09-03T03:33:46.472Z,2.06
2018-09-03T03:39:41.502Z,2.18
2018-09-03T03:45:36.494Z,2.14
2018-09-03T03:51:31.455Z,2.01
2018-09-03T03:57:26.491Z,1.95
2018-09-03T04:03:21.460Z,1.97
2018-09-03T04:09:16.481Z,1.7
2018-09-03T04:15:11.465Z,1.82
2018-09-03T04:21:06.499Z,1.93
2018-09-03T04:27:01.494Z,1.81
2018-09-03T04:32:56.468Z,1.99
2018-09-03T04:38:51.619Z,2.1
2018-09-03T04:44:46.504Z,1.7
2018-09-03T04:50:41.453Z,1.56
2018-09-03T04:56:36.508Z,2.07
2018-09-03T05:02:31.485Z,2.17
2018-09-03T05:08:26.493Z,1.57
2018-09-03T05:14:21.470Z,2.45
2018-09-03T05:20:16.477Z,3.15
2018-09-03T05:26:11.496Z,4.63
2018-09-03T05:32:06.478Z,4.56
2018-09-03T05:38:01.554Z,4.07
2018-09-03T05:43:56.551Z,3.43
2018-09-03T05:49:51.497Z,3.1
2018-09-03T05:55:46.510Z,5.45
2018-09-03T06:01:41.478Z,5.46
2018-09-03T06:07:36.486Z,6.37
2018-09-03T06:13:31.488Z,7.76
2018-09-03T06:19:26.484Z,6.51
2018-09-03T06:25:21.500Z,7.61
2018-09-03T06:31:16.502Z,4.63
2018-09-03T06:37:11.509Z,5.98
2018-09-03T06:43:06.489Z,6.05
2018-09-03T06:49:01.514Z,4.68
2018-09-03T06:54:56.527Z,4.51
2018-09-03T07:00:51.505Z,5.4
2018-09-03T07:06:46.559Z,5.51
2018-09-03T07:12:41.492Z,4.64
2018-09-03T07:18:36.562Z,4.5
2018-09-03T07:24:31.512Z,4.58
2018-09-03T07:30:26.533Z,5.1
2018-09-03T07:36:21.487Z,4.43
2018-09-03T07:42:16.496Z,4.97
2018-09-03T07:48:11.520Z,4.77
2018-09-03T07:54:06.494Z,4.76
2018-09-03T08:00:01.522Z,4.81
2018-09-03T08:05:56.526Z,4.56
2018-09-03T08:11:51.505Z,4.41
2018-09-03T08:17:46.566Z,3.83
2018-09-03T08:23:41.502Z,3.82
2018-09-03T08:29:36.549Z,3.57
2018-09-03T08:35:31.608Z,3.73
2018-09-03T08:41:26.571Z,3.48
2018-09-03T08:47:21.502Z,3.21
2018-09-03T08:53:16.518Z,3.11
2018-09-03T08:59:11.514Z,3.29
2018-09-03T09:05:06.557Z,2.83
2018-09-03T09:11:01.503Z,2.63
2018-09-03T09:16:56.519Z,2.26
2018-09-03T09:22:51.510Z,2.61
2018-09-03T09:28:46.517Z,2.23
2018-09-03T09:34:41.523Z,2.85
2018-09-03T09:40:36.510Z,2.44
2018-09-03T09:46:31.535Z,2.43
2018-09-03T09:52:26.555Z,2.5
2018-09-03T09:58:21.577Z,2.58
2018-09-03T10:04:16.568Z,2.34
2018-09-03T10:10:11.547Z,3.27
2018-09-03T10:16:06.550Z,3.82
2018-09-03T10:22:01.556Z,2.83
2018-09-03T10:27:56.582Z,3.42
2018-09-03T10:33:51.541Z,2.95
2018-09-03T10:39:46.562Z,2.49
2018-09-03T10:45:41.549Z,3
2018-09-03T10:51:36.540Z,2.37
2018-09-03T10:57:31.581Z,2.67
2018-09-03T11:03:26.557Z,2.84
2018-09-03T11:09:21.563Z,2.46
2018-09-03T11:15:16.567Z,2.25
2018-09-03T11:21:11.696Z,2.79
2018-09-03T11:27:06.592Z,1.92
2018-09-03T11:33:01.597Z,2.72
2018-09-03T11:38:56.610Z,2.46
2018-09-03T11:44:51.634Z,2.88
2018-09-03T11:50:46.566Z,2.5
2018-09-03T11:56:41.565Z,2.47
2018-09-03T12:02:36.571Z,2.31
2018-09-03T12:08:31.623Z,2.5
2018-09-03T12:14:26.665Z,2.68
2018-09-03T12:20:21.596Z,2.58
2018-09-03T12:26:16.656Z,2.17
2018-09-03T12:32:11.629Z,2.38
2018-09-03T12:38:06.590Z,2.5
2018-09-03T12:44:01.660Z,2.02
2018-09-03T12:49:56.588Z,2.49
2018-09-03T12:55:51.586Z,2.27
2018-09-03T13:01:46.580Z,2.37
2018-09-03T13:07:41.638Z,1.79
2018-09-03T13:13:36.640Z,1.97
2018-09-03T13:19:31.713Z,1.99
2018-09-03T13:25:26.604Z,2.17
2018-09-03T13:31:21.648Z,2.27
2018-09-03T13:37:16.616Z,1.94
2018-09-03T13:43:11.655Z,2.33
2018-09-03T13:49:06.617Z,1.68
2018-09-03T13:55:01.775Z,1.99
2018-09-03T14:00:56.627Z,2.1
2018-09-03T14:06:51.629Z,2.53
2018-09-03T14:12:46.648Z,2.49
2018-09-03T14:18:41.657Z,1.87
2018-09-03T14:24:36.667Z,1.62
2018-09-03T14:30:31.660Z,1.76
2018-09-03T14:36:26.673Z,1.53
2018-09-03T14:42:21.667Z,1.57
2018-09-03T14:48:16.650Z,1.65
2018-09-03T14:54:11.694Z,1.69
2018-09-03T15:00:06.672Z,1.3
2018-09-03T15:06:01.674Z,1.4
2018-09-03T15:11:56.656Z,1.65
2018-09-03T15:17:51.680Z,1.77
2018-09-03T15:23:46.657Z,1.49
2018-09-03T15:29:41.685Z,1.24
2018-09-03T15:35:36.708Z,1.62
2018-09-03T15:41:31.686Z,1.56
2018-09-03T15:47:26.717Z,1.72
2018-09-03T15:53:21.686Z,2.1
2018-09-03T15:59:16.664Z,1.52
2018-09-03T16:05:11.707Z,1.7
2018-09-03T16:11:06.696Z,1.53
2018-09-03T16:17:01.711Z,1.64
2018-09-03T16:22:56.697Z,1.46
2018-09-03T16:28:51.720Z,1.53
2018-09-03T16:34:47.017Z,1.97
2018-09-03T16:40:42.053Z,1.81
2018-09-03T16:46:36.708Z,1.83
2018-09-03T16:52:31.784Z,1.55
2018-09-03T16:58:26.703Z,1.4
2018-09-03T17:04:21.691Z,1.59
2018-09-03T17:10:16.692Z,1.75
2018-09-03T17:16:11.699Z,1.49
2018-09-03T17:22:06.783Z,1.85
2018-09-03T17:28:01.696Z,2.39
2018-09-03T17:33:56.972Z,1.65
2018-09-03T17:39:51.982Z,1.4
2018-09-03T17:45:46.746Z,1.68
2018-09-03T17:51:41.954Z,1.6
2018-09-03T17:57:36.811Z,1.82
2018-09-03T18:03:31.805Z,1.97
2018-09-03T18:09:26.721Z,1.83
2018-09-03T18:15:21.756Z,1.96
2018-09-03T18:21:16.738Z,1.6
2018-09-03T18:27:11.740Z,1.68
2018-09-03T18:33:06.742Z,1.46
2018-09-03T18:39:01.746Z,1.5
2018-09-03T18:44:56.760Z,1.83
2018-09-03T18:50:51.746Z,1.65
2018-09-03T18:56:46.728Z,1.67
2018-09-03T19:02:41.761Z,1.78
2018-09-03T19:08:36.760Z,1.53
2018-09-03T19:14:31.758Z,1.68
2018-09-03T19:20:26.772Z,1.65
2018-09-03T19:26:21.748Z,1.83
2018-09-03T19:32:16.728Z,1.92
2018-09-03T19:38:11.772Z,1.83
2018-09-03T19:44:06.757Z,2.45
2018-09-03T19:50:01.799Z,1.85
2018-09-03T19:55:56.757Z,1.69
2018-09-03T20:01:51.790Z,1.93
2018-09-03T20:07:46.777Z,1.97
2018-09-03T20:13:41.774Z,1.93
2018-09-03T20:19:36.754Z,2.09
2018-09-03T20:25:31.785Z,2.05
2018-09-03T20:31:26.778Z,1.85
2018-09-03T20:37:21.798Z,2.47
2018-09-03T20:43:16.758Z,2.28
2018-09-03T20:49:11.761Z,1.92
2018-09-03T20:55:06.770Z,2.1
2018-09-03T21:01:01.782Z,2.17
2018-09-03T21:06:56.775Z,2.18
2018-09-03T21:12:51.781Z,2.07
2018-09-03T21:18:46.806Z,2.14
2018-09-03T21:24:41.796Z,2.63
2018-09-03T21:30:36.759Z,1.73
2018-09-03T21:36:31.821Z,2.27
2018-09-03T21:42:26.751Z,2.12
2018-09-03T21:48:21.785Z,1.99
2018-09-03T21:54:16.793Z,2.26
2018-09-03T22:00:11.897Z,1.99
2018-09-03T22:06:06.855Z,2.6
2018-09-03T22:12:01.832Z,2.07
2018-09-03T22:17:56.816Z,1.94
2018-09-03T22:23:51.777Z,2.33
2018-09-03T22:29:46.808Z,2.56
2018-09-03T22:35:41.777Z,2.41
2018-09-03T22:41:36.765Z,2.35
2018-09-03T22:47:31.795Z,2.33
2018-09-03T22:53:26.761Z,2.42
2018-09-03T22:59:21.789Z,1.96
2018-09-03T23:05:16.806Z,2.31
2018-09-03T23:11:11.863Z,2.17
2018-09-03T23:17:06.903Z,2.01
2018-09-03T23:23:01.791Z,1.9
2018-09-03T23:28:56.770Z,2.33
2018-09-03T23:34:51.783Z,1.89
2018-09-03T23:40:46.783Z,2.09
2018-09-03T23:46:41.785Z,2.26
2018-09-03T23:52:36.787Z,1.81
2018-09-03T23:58:31.785Z,2.2
